createdAt,value
2019-01-04T00:01:34.746Z,54.87
2019-01-04T00:04:03.903Z,54.60
2019-01-04T00:06:32.577Z,52.07
2019-01-04T00:09:01.705Z,54.07
2019-01-04T00:11:30.360Z,52.47
2019-01-04T00:13:59.036Z,50.00
2019-01-04T00:16:27.758Z,50.37
2019-01-04T00:18:56.420Z,48.45
2019-01-04T00:21:25.100Z,50.60
2019-01-04T00:23:53.736Z,43.47
2019-01-04T00:26:22.458Z,47.13
2019-01-04T00:28:51.092Z,47.90
2019-01-04T00:31:19.745Z,48.57
2019-01-04T00:33:48.831Z,48.37
2019-01-04T00:36:17.540Z,48.20
2019-01-04T00:38:46.273Z,48.80
2019-01-04T00:41:14.946Z,49.30
2019-01-04T00:43:43.612Z,52.23
2019-01-04T00:46:12.263Z,51.70
2019-01-04T00:48:40.937Z,52.53
2019-01-04T00:51:09.599Z,49.20
2019-01-04T00:53:38.262Z,50.30
2019-01-04T00:56:15.897Z,51.47
2019-01-04T00:59:10.182Z,49.63
2019-01-04T01:01:50.686Z,48.80
2019-01-04T01:04:25.208Z,48.97
2019-01-04T01:07:08.909Z,51.90
2019-01-04T01:09:59.999Z,53.70
2019-01-04T01:12:49.574Z,72.17
2019-01-04T01:15:23.973Z,54.80
2019-01-04T01:18:17.975Z,53.83
2019-01-04T01:21:07.692Z,51.77
2019-01-04T01:23:55.905Z,52.63
2019-01-04T01:26:53.045Z,48.90
2019-01-04T01:29:53.491Z,42.53
2019-01-04T01:33:00.197Z,45.10
2019-01-04T01:35:52.885Z,42.43
2019-01-04T01:38:41.152Z,45.97
2019-01-04T01:41:29.349Z,39.50
2019-01-04T01:44:18.499Z,39.43
2019-01-04T01:46:50.286Z,44.07
2019-01-04T01:49:36.962Z,44.20
2019-01-04T01:52:17.464Z,39.67
2019-01-04T01:54:46.120Z,49.50
2019-01-04T01:57:14.773Z,54.87
2019-01-04T01:59:43.423Z,58.30
2019-01-04T02:02:12.086Z,61.90
2019-01-04T02:04:40.756Z,57.07
2019-01-04T02:07:09.421Z,58.10
2019-01-04T02:09:38.078Z,54.00
2019-01-04T02:12:06.742Z,35.93
2019-01-04T02:14:35.388Z,37.57
2019-01-04T02:17:04.014Z,37.55
2019-01-04T02:19:32.664Z,36.23
2019-01-04T02:22:01.331Z,34.70
2019-01-04T02:24:30.026Z,39.80
2019-01-04T02:26:58.676Z,35.93
2019-01-04T02:29:27.343Z,37.20
2019-01-04T02:31:56.012Z,38.07
2019-01-04T02:34:24.669Z,40.47
2019-01-04T02:36:53.367Z,43.77
2019-01-04T02:39:21.996Z,41.93
2019-01-04T02:41:50.664Z,41.23
2019-01-04T02:44:19.335Z,43.10
2019-01-04T02:46:47.981Z,39.03
2019-01-04T02:49:16.659Z,44.23
2019-01-04T02:51:45.363Z,37.03
2019-01-04T02:54:14.031Z,34.20
2019-01-04T02:56:42.664Z,33.50
2019-01-04T02:59:12.354Z,33.57
2019-01-04T03:01:41.398Z,35.03
2019-01-04T03:04:10.108Z,35.63
2019-01-04T03:06:38.761Z,34.57
2019-01-04T03:09:07.395Z,40.38
2019-01-04T03:11:36.083Z,37.47
2019-01-04T03:14:04.730Z,33.53
2019-01-04T03:16:33.802Z,34.33
2019-01-04T03:19:02.485Z,36.10
2019-01-04T03:21:31.162Z,35.77
2019-01-04T03:23:59.824Z,32.60
2019-01-04T03:26:28.488Z,35.57
2019-01-04T03:28:57.361Z,36.73
2019-01-04T03:31:26.022Z,37.07
2019-01-04T03:33:54.676Z,41.13
2019-01-04T03:36:23.339Z,35.93
2019-01-04T03:38:52.009Z,37.70
2019-01-04T03:41:20.735Z,35.70
2019-01-04T03:43:49.403Z,34.77
2019-01-04T03:46:18.068Z,33.57
2019-01-04T03:48:46.748Z,33.80
2019-01-04T03:51:15.432Z,33.03
2019-01-04T03:53:44.141Z,35.37
2019-01-04T03:56:12.792Z,35.67
2019-01-04T03:58:41.423Z,32.67
2019-01-04T04:01:10.116Z,36.80
2019-01-04T04:03:38.753Z,41.30
2019-01-04T04:06:07.816Z,40.53
2019-01-04T04:08:36.482Z,40.07
2019-01-04T04:11:05.140Z,53.33
2019-01-04T04:13:33.806Z,39.53
2019-01-04T04:16:02.460Z,37.40
2019-01-04T04:18:31.149Z,31.40
2019-01-04T04:20:59.813Z,30.97
2019-01-04T04:23:28.487Z,28.90
2019-01-04T04:25:57.258Z,27.50
2019-01-04T04:28:25.926Z,28.23
2019-01-04T04:30:58.041Z,30.90
2019-01-04T04:33:26.707Z,30.10
2019-01-04T04:35:55.380Z,30.33
2019-01-04T04:38:24.026Z,26.30
2019-01-04T04:40:52.690Z,32.33
2019-01-04T04:43:21.796Z,31.03
2019-01-04T04:45:50.443Z,29.93
2019-01-04T04:48:19.149Z,30.73
2019-01-04T04:50:47.851Z,30.87
2019-01-04T04:53:16.525Z,28.43
2019-01-04T04:55:45.190Z,30.27
2019-01-04T04:58:13.852Z,30.07
2019-01-04T05:00:43.760Z,31.30
2019-01-04T05:03:12.412Z,33.60
2019-01-04T05:05:41.068Z,31.47
2019-01-04T05:08:09.709Z,31.07
2019-01-04T05:10:38.353Z,30.43
2019-01-04T05:13:07.023Z,26.97
2019-01-04T05:15:35.654Z,25.30
2019-01-04T05:18:04.323Z,27.67
2019-01-04T05:20:32.973Z,27.87
2019-01-04T05:23:01.662Z,26.50
2019-01-04T05:25:30.332Z,26.03
2019-01-04T05:27:58.993Z,26.70
2019-01-04T05:30:27.635Z,29.17
2019-01-04T05:32:56.333Z,26.97
2019-01-04T05:35:25.166Z,27.77
2019-01-04T05:37:54.033Z,27.50
2019-01-04T05:40:23.145Z,29.27
2019-01-04T05:42:51.806Z,28.40
2019-01-04T05:45:20.461Z,31.17
2019-01-04T05:47:49.112Z,29.03
2019-01-04T05:50:17.784Z,30.20
2019-01-04T05:52:46.454Z,31.37
2019-01-04T05:55:15.101Z,29.77
2019-01-04T05:57:43.869Z,30.10
2019-01-04T06:00:12.549Z,31.83
2019-01-04T06:02:43.936Z,43.92
2019-01-04T06:05:12.597Z,35.47
2019-01-04T06:07:41.259Z,34.60
2019-01-04T06:10:10.380Z,33.23
2019-01-04T06:12:39.053Z,30.53
2019-01-04T06:15:07.769Z,28.23
2019-01-04T06:17:36.426Z,27.10
2019-01-04T06:20:06.185Z,23.37
2019-01-04T06:22:34.873Z,23.73
2019-01-04T06:25:03.755Z,24.83
2019-01-04T06:27:32.383Z,24.57
2019-01-04T06:30:01.034Z,24.07
2019-01-04T06:32:29.775Z,23.63
2019-01-04T06:34:58.465Z,24.53
2019-01-04T06:37:27.114Z,26.47
2019-01-04T06:39:55.768Z,25.63
2019-01-04T06:42:24.428Z,23.70
2019-01-04T06:44:53.124Z,22.03
2019-01-04T06:47:21.776Z,20.30
2019-01-04T06:49:50.462Z,15.73
2019-01-04T06:52:19.139Z,14.47
2019-01-04T06:55:19.460Z,15.40
2019-01-04T06:57:48.164Z,15.33
2019-01-04T07:00:16.816Z,15.20
2019-01-04T07:02:45.950Z,13.77
2019-01-04T07:05:14.711Z,15.07
2019-01-04T07:07:43.359Z,15.73
2019-01-04T07:10:12.002Z,17.17
2019-01-04T07:12:40.688Z,18.40
2019-01-04T07:15:09.550Z,19.03
2019-01-04T07:17:38.249Z,18.00
2019-01-04T07:20:06.891Z,18.27
2019-01-04T07:22:37.188Z,16.13
2019-01-04T07:25:05.858Z,15.03
2019-01-04T07:27:35.330Z,14.10
2019-01-04T07:30:08.291Z,14.00
2019-01-04T07:32:37.012Z,13.80
2019-01-04T07:35:05.703Z,14.70
2019-01-04T07:37:34.343Z,13.97
2019-01-04T07:40:03.711Z,13.27
2019-01-04T07:42:32.389Z,13.67
2019-01-04T07:45:01.071Z,12.80
2019-01-04T07:47:29.716Z,12.60
2019-01-04T07:49:58.424Z,12.47
2019-01-04T07:52:27.088Z,11.30
2019-01-04T07:54:56.919Z,12.10
2019-01-04T07:57:25.581Z,12.73
2019-01-04T07:59:54.311Z,11.37
2019-01-04T08:02:38.940Z,11.60
2019-01-04T08:05:18.200Z,11.97
2019-01-04T08:07:46.852Z,12.37
2019-01-04T08:10:15.524Z,13.60
2019-01-04T08:12:44.200Z,13.87
2019-01-04T08:15:12.863Z,14.63
2019-01-04T08:17:41.523Z,15.10
2019-01-04T08:20:11.129Z,14.30
2019-01-04T08:22:42.497Z,14.83
2019-01-04T08:25:11.210Z,16.73
2019-01-04T08:27:39.846Z,15.33
2019-01-04T08:30:11.060Z,13.73
2019-01-04T08:32:39.817Z,11.33
2019-01-04T08:35:08.667Z,12.87
2019-01-04T08:37:37.341Z,13.00
2019-01-04T08:40:08.544Z,12.50
2019-01-04T08:42:37.484Z,13.40
2019-01-04T08:45:08.810Z,15.63
2019-01-04T08:47:37.873Z,15.10
2019-01-04T08:50:10.213Z,16.03
2019-01-04T08:52:38.876Z,16.30
2019-01-04T08:55:09.440Z,15.40
2019-01-04T08:57:38.073Z,21.03
2019-01-04T09:00:10.079Z,18.43
2019-01-04T09:02:38.740Z,15.50
2019-01-04T09:05:07.487Z,16.30
2019-01-04T09:07:36.133Z,14.83
2019-01-04T09:10:06.289Z,15.57
2019-01-04T09:12:35.096Z,15.67
2019-01-04T09:15:07.881Z,16.60
2019-01-04T09:17:36.536Z,16.67
2019-01-04T09:20:08.097Z,16.90
2019-01-04T09:22:39.654Z,18.07
2019-01-04T09:25:09.178Z,18.53
2019-01-04T09:27:38.886Z,17.43
2019-01-04T09:30:10.327Z,16.87
2019-01-04T09:32:38.960Z,16.00
2019-01-04T09:35:07.598Z,18.67
2019-01-04T09:37:36.285Z,18.93
2019-01-04T09:40:08.368Z,20.33
2019-01-04T09:42:37.036Z,20.40
2019-01-04T09:45:07.928Z,20.13
2019-01-04T09:47:36.673Z,20.43
2019-01-04T09:50:07.434Z,19.70
2019-01-04T09:52:36.092Z,20.30
2019-01-04T09:55:05.444Z,21.23
2019-01-04T09:57:34.161Z,21.00
2019-01-04T10:00:02.853Z,21.83
2019-01-04T10:02:31.907Z,22.33
2019-01-04T10:05:03.493Z,22.03
2019-01-04T10:07:32.146Z,22.77
2019-01-04T10:10:00.821Z,24.53
2019-01-04T10:12:29.488Z,23.40
2019-01-04T10:14:58.157Z,22.60
2019-01-04T10:17:26.855Z,23.53
2019-01-04T10:19:55.510Z,21.73
2019-01-04T10:22:24.138Z,21.27
2019-01-04T10:24:52.898Z,19.47
2019-01-04T10:27:21.532Z,20.70
2019-01-04T10:29:50.162Z,18.37
2019-01-04T10:32:18.806Z,20.30
2019-01-04T10:34:47.460Z,21.60
2019-01-04T10:37:16.174Z,20.03
2019-01-04T10:39:44.811Z,21.77
2019-01-04T10:42:13.486Z,20.90
2019-01-04T10:44:42.124Z,20.53
2019-01-04T10:47:10.796Z,20.10
2019-01-04T10:49:39.443Z,19.20
2019-01-04T10:52:08.114Z,20.37
2019-01-04T10:54:36.768Z,25.37
2019-01-04T10:57:05.405Z,20.10
2019-01-04T10:59:34.113Z,17.40
2019-01-04T11:02:02.797Z,18.37
2019-01-04T11:04:31.457Z,18.03
2019-01-04T11:07:00.133Z,18.00
2019-01-04T11:09:28.864Z,17.43
2019-01-04T11:11:57.527Z,16.80
2019-01-04T11:14:26.464Z,16.13
2019-01-04T11:16:55.129Z,17.90
2019-01-04T11:19:23.795Z,14.73
2019-01-04T11:21:54.045Z,13.53
2019-01-04T11:24:36.091Z,13.40
2019-01-04T11:27:04.772Z,12.87
2019-01-04T11:29:51.284Z,13.00
2019-01-04T11:32:28.793Z,12.70
2019-01-04T11:35:16.525Z,14.73
2019-01-04T11:38:00.157Z,15.13
2019-01-04T11:40:37.876Z,14.53
2019-01-04T11:43:38.548Z,15.23
2019-01-04T11:46:16.164Z,14.80
2019-01-04T11:48:54.171Z,14.53
2019-01-04T11:51:34.613Z,15.03
2019-01-04T11:54:04.408Z,18.30
2019-01-04T11:56:33.065Z,18.20
2019-01-04T11:59:01.734Z,18.17
2019-01-04T12:01:30.420Z,16.60
2019-01-04T12:03:59.096Z,16.90
2019-01-04T12:06:27.711Z,16.33
2019-01-04T12:08:56.376Z,15.07
2019-01-04T12:11:25.046Z,15.07
2019-01-04T12:13:53.685Z,16.57
2019-01-04T12:16:22.406Z,14.53
2019-01-04T12:18:51.663Z,14.90
2019-01-04T12:21:23.281Z,14.70
2019-01-04T12:23:52.042Z,16.37
2019-01-04T12:26:20.659Z,17.37
2019-01-04T12:28:49.312Z,15.47
2019-01-04T12:31:17.956Z,16.00
2019-01-04T12:33:46.623Z,15.17
2019-01-04T12:36:15.283Z,14.93
2019-01-04T12:38:43.925Z,14.77
2019-01-04T12:41:12.594Z,15.77
2019-01-04T12:43:41.245Z,14.67
2019-01-04T12:46:10.212Z,16.33
2019-01-04T12:48:38.884Z,15.57
2019-01-04T12:51:07.546Z,15.08
2019-01-04T12:53:36.211Z,14.53
2019-01-04T12:56:04.886Z,14.67
2019-01-04T12:58:33.777Z,14.40
2019-01-04T13:01:02.435Z,15.13
2019-01-04T13:03:31.086Z,15.07
2019-01-04T13:05:59.670Z,15.27
2019-01-04T13:08:28.355Z,14.90
2019-01-04T13:10:57.583Z,14.13
2019-01-04T13:13:26.228Z,14.03
2019-01-04T13:15:54.916Z,13.27
2019-01-04T13:18:23.668Z,13.30
2019-01-04T13:20:52.310Z,16.17
2019-01-04T13:23:21.068Z,14.70
2019-01-04T13:25:52.466Z,13.20
2019-01-04T13:28:21.112Z,14.47
2019-01-04T13:30:49.924Z,14.70
2019-01-04T13:33:18.654Z,14.40
2019-01-04T13:35:47.368Z,14.30
2019-01-04T13:38:19.986Z,15.43
2019-01-04T13:40:46.406Z,14.27
2019-01-04T13:43:15.060Z,15.47
2019-01-04T13:45:43.674Z,15.10
2019-01-04T13:48:12.301Z,16.53
2019-01-04T13:50:40.965Z,16.37
2019-01-04T13:53:09.735Z,16.87
2019-01-04T13:55:38.357Z,18.03
2019-01-04T13:58:07.020Z,18.00
2019-01-04T14:00:35.676Z,17.73
2019-01-04T14:03:04.375Z,18.53
2019-01-04T14:05:33.593Z,17.60
2019-01-04T14:08:02.253Z,17.67
2019-01-04T14:10:30.925Z,16.47
2019-01-04T14:12:59.588Z,16.63
2019-01-04T14:15:28.259Z,17.87
2019-01-04T14:17:57.338Z,18.20
2019-01-04T14:20:26.013Z,20.97
2019-01-04T14:22:54.592Z,16.27
2019-01-04T14:25:23.280Z,21.03
2019-01-04T14:27:51.963Z,18.50
2019-01-04T14:30:22.659Z,20.13
2019-01-04T14:32:51.340Z,19.70
2019-01-04T14:35:20.023Z,18.67
2019-01-04T14:37:48.680Z,18.00
2019-01-04T14:40:17.430Z,19.53
2019-01-04T14:42:46.394Z,20.40
2019-01-04T14:45:15.038Z,23.27
2019-01-04T14:47:43.747Z,21.13
2019-01-04T14:50:12.430Z,19.57
2019-01-04T14:52:41.662Z,26.93
2019-01-04T14:55:10.682Z,21.70
2019-01-04T14:57:40.502Z,17.67
2019-01-04T15:00:11.358Z,21.43
2019-01-04T15:02:40.081Z,19.37
2019-01-04T15:05:08.765Z,17.70
2019-01-04T15:07:37.576Z,18.90
2019-01-04T15:10:08.225Z,20.90
2019-01-04T15:12:37.053Z,19.57
2019-01-04T15:15:10.051Z,23.10
2019-01-04T15:17:38.675Z,18.27
2019-01-04T15:20:09.228Z,16.40
2019-01-04T15:22:37.977Z,18.40
2019-01-04T15:25:07.125Z,17.40
2019-01-04T15:27:35.805Z,18.07
2019-01-04T15:30:07.229Z,18.13
2019-01-04T15:32:35.894Z,15.20
2019-01-04T15:35:04.549Z,15.60
2019-01-04T15:37:33.283Z,16.10
2019-01-04T15:40:01.946Z,15.93
2019-01-04T15:42:35.745Z,16.70
2019-01-04T15:45:06.176Z,16.30
2019-01-04T15:47:34.871Z,15.67
2019-01-04T15:50:05.339Z,14.77
2019-01-04T15:52:34.104Z,13.13
2019-01-04T15:55:02.685Z,12.70
2019-01-04T15:57:53.857Z,17.23
2019-01-04T16:00:22.514Z,13.90
2019-01-04T16:02:51.295Z,13.17
2019-01-04T16:05:19.998Z,12.93
2019-01-04T16:07:49.190Z,12.47
2019-01-04T16:10:17.824Z,12.73
2019-01-04T16:12:46.488Z,16.60
2019-01-04T16:15:15.161Z,17.90
2019-01-04T16:17:43.801Z,11.80
2019-01-04T16:20:12.454Z,11.27
2019-01-04T16:22:41.100Z,10.07
2019-01-04T16:25:09.807Z,10.37
2019-01-04T16:27:39.974Z,10.40
2019-01-04T16:30:10.994Z,9.60
2019-01-04T16:32:39.751Z,8.93
2019-01-04T16:35:09.500Z,9.57
2019-01-04T16:37:38.162Z,7.37
2019-01-04T16:40:08.333Z,8.00
2019-01-04T16:42:37.116Z,8.63
2019-01-04T16:45:06.807Z,9.03
2019-01-04T16:47:35.461Z,9.67
2019-01-04T16:50:06.097Z,9.43
2019-01-04T16:52:34.678Z,8.70
2019-01-04T16:55:03.492Z,8.30
2019-01-04T16:57:32.164Z,11.68
2019-01-04T17:00:00.849Z,9.13
2019-01-04T17:02:29.607Z,8.60
2019-01-04T17:04:58.328Z,9.03
2019-01-04T17:07:26.961Z,8.23
2019-01-04T17:09:55.661Z,8.40
2019-01-04T17:12:24.279Z,8.50
2019-01-04T17:14:52.949Z,9.03
2019-01-04T17:17:21.598Z,9.50
2019-01-04T17:19:50.275Z,10.27
2019-01-04T17:22:19.176Z,10.67
2019-01-04T17:24:47.917Z,11.43
2019-01-04T17:27:16.616Z,12.50
2019-01-04T17:29:45.347Z,12.60
2019-01-04T17:32:14.012Z,12.90
2019-01-04T17:34:42.667Z,14.40
2019-01-04T17:37:11.338Z,14.03
2019-01-04T17:39:40.029Z,14.67
2019-01-04T17:42:08.740Z,15.17
2019-01-04T17:44:37.393Z,16.30
2019-01-04T17:47:06.031Z,16.50
2019-01-04T17:49:34.720Z,16.93
2019-01-04T17:52:03.372Z,17.30
2019-01-04T17:54:32.028Z,16.73
2019-01-04T17:57:01.028Z,17.43
2019-01-04T17:59:29.731Z,19.63
2019-01-04T18:01:58.397Z,21.00
2019-01-04T18:04:27.068Z,21.90
2019-01-04T18:06:55.766Z,21.43
2019-01-04T18:09:24.511Z,22.60
2019-01-04T18:11:53.169Z,21.27
2019-01-04T18:14:23.443Z,20.00
2019-01-04T18:16:52.096Z,22.40
2019-01-04T18:19:21.052Z,22.60
2019-01-04T18:21:49.771Z,21.80
2019-01-04T18:24:18.430Z,21.83
2019-01-04T18:26:47.096Z,20.77
2019-01-04T18:29:15.752Z,19.93
2019-01-04T18:31:44.438Z,22.97
2019-01-04T18:34:13.126Z,28.53
2019-01-04T18:36:41.833Z,25.30
2019-01-04T18:39:10.492Z,21.60
2019-01-04T18:41:39.165Z,23.17
2019-01-04T18:44:07.872Z,24.07
2019-01-04T18:46:36.771Z,23.47
2019-01-04T18:49:08.300Z,22.93
2019-01-04T18:51:40.007Z,24.17
2019-01-04T18:54:08.756Z,23.27
2019-01-04T18:56:37.802Z,21.30
2019-01-04T18:59:08.141Z,20.27
2019-01-04T19:01:37.196Z,21.80
2019-01-04T19:04:05.831Z,19.87
2019-01-04T19:06:34.678Z,18.93
2019-01-04T19:09:04.142Z,17.17
2019-01-04T19:11:33.102Z,21.47
2019-01-04T19:14:04.562Z,14.73
2019-01-04T19:16:33.196Z,17.83
2019-01-04T19:19:01.880Z,19.43
2019-01-04T19:21:30.552Z,15.53
2019-01-04T19:23:59.255Z,15.27
2019-01-04T19:26:27.921Z,13.30
2019-01-04T19:28:56.571Z,13.13
2019-01-04T19:31:25.260Z,17.83
2019-01-04T19:33:53.913Z,15.70
2019-01-04T19:36:22.913Z,13.97
2019-01-04T19:38:51.525Z,14.53
2019-01-04T19:41:20.213Z,13.93
2019-01-04T19:43:48.865Z,15.60
2019-01-04T19:46:17.527Z,12.20
2019-01-04T19:48:46.224Z,10.20
2019-01-04T19:51:14.886Z,15.10
2019-01-04T19:53:43.526Z,12.50
2019-01-04T19:56:12.188Z,14.70
2019-01-04T19:58:40.829Z,17.03
2019-01-04T20:01:09.846Z,11.97
2019-01-04T20:03:38.621Z,12.97
2019-01-04T20:06:51.463Z,11.73
2019-01-04T20:10:03.934Z,10.57
2019-01-04T20:13:16.127Z,10.47
2019-01-04T20:15:55.179Z,9.60
2019-01-04T20:18:33.909Z,11.30
2019-01-04T20:21:13.015Z,10.27
2019-01-04T20:23:48.986Z,8.87
2019-01-04T20:26:25.263Z,10.13
2019-01-04T20:29:11.653Z,11.10
2019-01-04T20:31:58.273Z,13.60
2019-01-04T20:34:37.662Z,10.63
2019-01-04T20:37:07.898Z,19.97
2019-01-04T20:39:50.453Z,11.67
2019-01-04T20:42:32.724Z,9.53
2019-01-04T20:45:07.091Z,10.80
2019-01-04T20:47:53.746Z,11.63
2019-01-04T20:50:30.036Z,9.73
2019-01-04T20:53:00.240Z,8.60
2019-01-04T20:55:31.677Z,8.43
2019-01-04T20:58:13.622Z,7.47
2019-01-04T21:01:04.313Z,8.40
2019-01-04T21:03:50.551Z,7.30
2019-01-04T21:06:32.786Z,6.60
2019-01-04T21:09:03.074Z,6.13
2019-01-04T21:11:33.346Z,6.33
2019-01-04T21:14:18.686Z,6.77
2019-01-04T21:16:54.529Z,6.77
2019-01-04T21:19:41.222Z,6.20
2019-01-04T21:22:29.651Z,6.80
2019-01-04T21:25:16.269Z,7.97
2019-01-04T21:27:58.645Z,6.73
2019-01-04T21:30:31.475Z,7.07
2019-01-04T21:33:01.712Z,9.03
2019-01-04T21:35:48.113Z,8.77
2019-01-04T21:38:18.455Z,7.50
2019-01-04T21:40:51.570Z,7.00
2019-01-04T21:43:30.529Z,7.13
2019-01-04T21:46:06.594Z,6.93
2019-01-04T21:48:39.450Z,7.27
2019-01-04T21:51:21.574Z,7.30
2019-01-04T21:53:51.763Z,7.27
2019-01-04T21:56:34.186Z,7.43
2019-01-04T21:59:20.637Z,8.43
2019-01-04T22:02:02.838Z,10.18
2019-01-04T22:04:51.144Z,8.37
2019-01-04T22:07:30.274Z,8.27
2019-01-04T22:10:06.256Z,8.17
2019-01-04T22:12:52.923Z,8.00
2019-01-04T22:15:25.818Z,8.07
2019-01-04T22:18:04.645Z,8.70
2019-01-04T22:20:40.610Z,8.70
2019-01-04T22:23:26.123Z,10.90
2019-01-04T22:26:12.590Z,12.07
2019-01-04T22:28:46.079Z,10.00
2019-01-04T22:31:32.770Z,10.97
2019-01-04T22:34:19.236Z,10.03
2019-01-04T22:37:05.472Z,10.93
2019-01-04T22:39:38.435Z,9.67
2019-01-04T22:42:25.163Z,10.07
2019-01-04T22:45:09.017Z,10.00
2019-01-04T22:47:47.752Z,10.33
2019-01-04T22:50:34.435Z,9.87
2019-01-04T22:53:16.491Z,10.00
2019-01-04T22:55:47.126Z,11.22
2019-01-04T22:58:32.061Z,11.00
2019-01-04T23:01:02.287Z,11.53
2019-01-04T23:03:47.594Z,10.43
2019-01-04T23:06:19.380Z,11.93
2019-01-04T23:08:52.598Z,11.20
2019-01-04T23:11:38.981Z,13.80
2019-01-04T23:14:11.924Z,15.07
2019-01-04T23:16:42.200Z,11.93
2019-01-04T23:19:29.531Z,15.13
2019-01-04T23:22:19.024Z,10.77
2019-01-04T23:24:55.257Z,13.10
2019-01-04T23:27:43.698Z,11.47
2019-01-04T23:30:41.002Z,12.23
2019-01-04T23:33:11.224Z,11.47
2019-01-04T23:35:47.362Z,12.33
2019-01-04T23:38:29.909Z,12.90
2019-01-04T23:41:00.236Z,12.60
2019-01-04T23:43:46.687Z,12.80
2019-01-04T23:46:16.918Z,13.20
2019-01-04T23:48:56.192Z,14.40
2019-01-04T23:51:34.415Z,17.10
2019-01-04T23:54:07.347Z,18.27
2019-01-04T23:56:52.799Z,22.75
2019-01-04T23:59:23.024Z,19.70
